Time,TemperatureF,DewpointF,PressureIn,WindDirection,WindDirectionDegrees,WindSpeedMPH,WindSpeedGustMPH,Humidity,HourlyPrecipIn,Conditions,Clouds,dailyrainin,SolarRadiationWatts/m^2,SoftwareType,DateUTC
2013-09-19 00:10:00,49.6,46.8,30.18,ESE,104,0.0,0.0,90,0.00,,,0.00,0,Wunderground v.1.15,2013-09-19 04:10:00,
2013-09-19 00:20:00,49.5,46.7,30.18,ESE,104,0.0,0.0,90,0.00,,,0.00,0,Wunderground v.1.15,2013-09-19 04:20:00,
2013-09-19 00:30:00,49.2,46.4,30.18,ESE,104,0.0,0.0,90,0.00,,,0.00,0,Wunderground v.1.15,2013-09-19 04:30:00,
2013-09-19 00:40:00,49.0,46.5,30.18,ESE,104,0.0,0.0,91,0.00,,,0.00,0,Wunderground v.1.15,2013-09-19 04:40:00,
2013-09-19 00:50:00,48.8,46.3,30.18,ESE,104,0.0,0.0,91,0.00,,,0.00,0,Wunderground v.1.15,2013-09-19 04:50:00,
2013-09-19 01:00:00,48.7,46.2,30.18,ESE,104,0.0,0.0,91,0.00,,,0.00,0,Wunderground v.1.15,2013-09-19 05:00:00,
2013-09-19 01:10:00,48.5,46.0,30.18,ESE,104,0.0,0.0,91,0.00,,,0.00,0,Wunderground v.1.15,2013-09-19 05:10:00,
2013-09-19 01:20:00,48.4,45.9,30.18,ESE,104,0.0,0.0,91,0.00,,,0.00,0,Wunderground v.1.15,2013-09-19 05:20:00,
2013-09-19 01:30:00,48.3,45.8,30.18,ESE,104,0.0,0.0,91,0.00,,,0.00,0,Wunderground v.1.15,2013-09-19 05:30:00,
2013-09-19 01:40:00,48.2,45.7,30.19,ESE,104,0.0,0.0,91,0.00,,,0.00,0,Wunderground v.1.15,2013-09-19 05:40:00,
2013-09-19 01:50:00,48.1,45.6,30.19,ESE,104,0.0,0.0,91,0.00,,,0.00,0,Wunderground v.1.15,2013-09-19 05:50:00,
2013-09-19 02:00:00,48.0,45.5,30.18,ESE,104,0.0,0.0,91,0.00,,,0.00,0,Wunderground v.1.15,2013-09-19 06:00:00,
2013-09-19 02:10:00,47.8,45.6,30.18,ESE,104,0.0,0.0,92,0.00,,,0.00,0,Wunderground v.1.15,2013-09-19 06:10:00,
2013-09-19 02:20:00,47.7,45.2,30.19,ESE,104,0.0,0.0,91,0.00,,,0.00,0,Wunderground v.1.15,2013-09-19 06:20:00,
2013-09-19 02:30:00,47.6,45.4,30.19,ESE,104,0.0,0.0,92,0.00,,,0.00,0,Wunderground v.1.15,2013-09-19 06:30:00,
2013-09-19 02:40:00,47.6,45.4,30.18,ESE,104,0.0,0.0,92,0.00,,,0.00,0,Wunderground v.1.15,2013-09-19 06:40:00,
2013-09-19 02:50:00,47.4,44.9,30.18,ESE,104,0.0,0.0,91,0.00,,,0.00,0,Wunderground v.1.15,2013-09-19 06:50:00,
2013-09-19 03:00:00,47.2,45.0,30.18,ESE,104,0.0,0.0,92,0.00,,,0.00,0,Wunderground v.1.15,2013-09-19 07:00:00,
2013-09-19 03:10:00,47.0,44.8,30.18,ESE,104,0.0,0.0,92,0.00,,,0.00,0,Wunderground v.1.15,2013-09-19 07:10:00,
2013-09-19 03:20:00,46.8,44.3,30.18,ESE,104,0.0,0.0,91,0.00,,,0.00,0,Wunderground v.1.15,2013-09-19 07:20:00,
2013-09-19 03:30:00,46.7,44.5,30.17,ESE,104,0.0,0.0,92,0.00,,,0.00,0,Wunderground v.1.15,2013-09-19 07:30:00,
2013-09-19 03:40:00,46.6,44.4,30.17,ESE,104,0.0,0.0,92,0.00,,,0.00,0,Wunderground v.1.15,2013-09-19 07:40:00,
2013-09-19 03:50:00,46.5,44.3,30.18,ESE,104,0.0,0.0,92,0.00,,,0.00,0,Wunderground v.1.15,2013-09-19 07:50:00,
2013-09-19 04:00:00,46.3,44.1,30.18,ESE,104,0.0,0.0,92,0.00,,,0.00,0,Wunderground v.1.15,2013-09-19 08:00:00,
2013-09-19 04:10:00,46.1,43.9,30.18,ESE,104,0.0,0.0,92,0.00,,,0.00,0,Wunderground v.1.15,2013-09-19 08:10:00,
2013-09-19 04:20:00,45.9,43.7,30.18,ESE,104,0.0,0.0,92,0.00,,,0.00,0,Wunderground v.1.15,2013-09-19 08:20:00,
2013-09-19 04:30:00,45.7,43.2,30.17,ESE,104,0.0,0.0,91,0.00,,,0.00,0,Wunderground v.1.15,2013-09-19 08:30:00,
2013-09-19 04:40:00,45.4,43.2,30.17,ESE,104,0.0,0.0,92,0.00,,,0.00,0,Wunderground v.1.15,2013-09-19 08:40:00,
2013-09-19 04:50:00,45.3,43.1,30.17,ESE,104,0.0,0.0,92,0.00,,,0.00,0,Wunderground v.1.15,2013-09-19 08:50:00,
2013-09-19 05:00:00,45.2,43.0,30.17,ESE,104,0.0,0.0,92,0.00,,,0.00,0,Wunderground v.1.15,2013-09-19 09:00:00,
2013-09-19 05:10:00,45.2,43.0,30.17,ESE,104,0.0,0.0,92,0.00,,,0.00,0,Wunderground v.1.15,2013-09-19 09:10:00,
2013-09-19 05:20:00,45.1,42.9,30.17,ESE,104,0.0,0.0,92,0.00,,,0.00,0,Wunderground v.1.15,2013-09-19 09:20:00,
2013-09-19 05:30:00,44.9,42.7,30.17,ESE,104,0.0,0.0,92,0.00,,,0.00,0,Wunderground v.1.15,2013-09-19 09:30:00,
2013-09-19 05:40:00,44.8,42.6,30.17,ESE,104,0.0,0.0,92,0.00,,,0.00,0,Wunderground v.1.15,2013-09-19 09:40:00,
2013-09-19 05:50:00,44.6,42.4,30.18,ESE,104,0.0,0.0,92,0.00,,,0.00,0,Wunderground v.1.15,2013-09-19 09:50:00,
2013-09-19 06:00:00,44.6,42.4,30.18,ESE,103,0.0,0.0,92,0.00,,,0.00,0,Wunderground v.1.15,2013-09-19 10:00:00,
2013-09-19 06:10:00,44.5,42.3,30.18,ESE,103,0.0,0.0,92,0.00,,,0.00,0,Wunderground v.1.15,2013-09-19 10:10:00,
2013-09-19 06:20:00,44.3,42.1,30.19,ESE,103,0.0,0.0,92,0.00,,,0.00,0,Wunderground v.1.15,2013-09-19 10:20:00,
2013-09-19 06:30:00,44.2,42.0,30.19,ESE,103,0.0,0.0,92,0.00,,,0.00,0,Wunderground v.1.15,2013-09-19 10:30:00,
2013-09-19 06:40:00,44.0,41.8,30.19,ESE,104,0.0,0.0,92,0.00,,,0.00,0,Wunderground v.1.15,2013-09-19 10:40:00,
2013-09-19 06:50:00,44.0,41.8,30.19,ESE,102,0.0,0.0,92,0.00,,,0.00,0,Wunderground v.1.15,2013-09-19 10:50:00,
2013-09-19 07:00:00,43.9,41.7,30.19,ESE,103,0.0,0.0,92,0.00,,,0.00,7,Wunderground v.1.15,2013-09-19 11:00:00,
2013-09-19 07:10:00,43.8,41.9,30.19,ESE,104,0.0,0.0,93,0.00,,,0.00,14,Wunderground v.1.15,2013-09-19 11:10:00,
2013-09-19 07:20:00,44.0,42.1,30.19,ESE,105,0.0,0.0,93,0.00,,,0.00,19,Wunderground v.1.15,2013-09-19 11:20:00,
2013-09-19 07:30:00,44.1,42.2,30.19,ESE,104,0.0,0.0,93,0.00,,,0.00,28,Wunderground v.1.15,2013-09-19 11:30:00,
2013-09-19 07:40:00,44.3,42.4,30.19,ESE,105,0.0,0.0,93,0.00,,,0.00,28,Wunderground v.1.15,2013-09-19 11:40:00,
2013-09-19 07:50:00,45.0,43.4,30.19,ESE,102,0.0,0.0,94,0.00,,,0.00,30,Wunderground v.1.15,2013-09-19 11:50:00,
2013-09-19 08:00:00,45.5,43.9,30.19,ESE,102,0.0,0.0,94,0.00,,,0.00,32,Wunderground v.1.15,2013-09-19 12:00:00,
2013-09-19 08:10:00,46.0,44.4,30.18,ESE,103,0.0,0.0,94,0.00,,,0.00,67,Wunderground v.1.15,2013-09-19 12:10:00,
2013-09-19 08:20:00,46.9,45.3,30.18,ESE,104,0.0,0.0,94,0.00,,,0.00,35,Wunderground v.1.15,2013-09-19 12:20:00,
2013-09-19 08:30:00,48.0,46.4,30.18,ESE,102,0.0,0.0,94,0.00,,,0.00,37,Wunderground v.1.15,2013-09-19 12:30:00,
2013-09-19 08:40:00,49.1,47.4,30.18,ESE,103,0.0,0.0,94,0.00,,,0.00,56,Wunderground v.1.15,2013-09-19 12:40:00,
2013-09-19 08:50:00,50.0,48.3,30.18,ESE,123,0.0,0.0,94,0.00,,,0.00,40,Wunderground v.1.15,2013-09-19 12:50:00,
2013-09-19 09:00:00,50.9,49.2,30.19,ENE,57,0.0,0.0,94,0.00,,,0.00,42,Wunderground v.1.15,2013-09-19 13:00:00,
2013-09-19 09:10:00,51.6,49.9,30.19,SE,139,0.0,0.0,94,0.00,,,0.00,130,Wunderground v.1.15,2013-09-19 13:10:00,
2013-09-19 09:20:00,52.5,50.8,30.19,SE,140,0.0,0.0,94,0.00,,,0.00,186,Wunderground v.1.15,2013-09-19 13:20:00,
2013-09-19 09:30:00,53.1,51.4,30.19,South,181,0.0,0.0,94,0.00,,,0.00,281,Wunderground v.1.15,2013-09-19 13:30:00,
2013-09-19 09:40:00,53.8,52.1,30.18,South,169,0.0,0.0,94,0.00,,,0.00,450,Wunderground v.1.15,2013-09-19 13:40:00,
2013-09-19 10:00:00,55.8,53.5,30.18,NE,39,0.0,0.0,92,0.00,,,0.00,531,Wunderground v.1.15,2013-09-19 14:00:00,
2013-09-19 10:10:00,56.9,53.4,30.18,WNW,287,1.0,1.0,88,0.00,,,0.00,557,Wunderground v.1.15,2013-09-19 14:10:00,
2013-09-19 10:20:00,58.0,52.9,30.18,South,178,1.0,1.0,83,0.00,,,0.00,584,Wunderground v.1.15,2013-09-19 14:20:00,
2013-09-19 10:30:00,59.4,53.2,30.17,SE,134,1.0,1.0,80,0.00,,,0.00,605,Wunderground v.1.15,2013-09-19 14:30:00,
2013-09-19 10:40:00,60.2,55.0,30.17,SE,126,0.0,0.0,83,0.00,,,0.00,626,Wunderground v.1.15,2013-09-19 14:40:00,
2013-09-19 10:50:00,60.9,53.6,30.17,ESE,112,0.0,0.0,77,0.00,,,0.00,647,Wunderground v.1.15,2013-09-19 14:50:00,
2013-09-19 11:01:00,62.1,53.7,30.17,South,177,0.0,0.0,74,0.00,,,0.00,668,Wunderground v.1.15,2013-09-19 15:01:00,
2013-09-19 11:10:00,63.4,54.2,30.17,South,173,0.0,1.0,72,0.00,,,0.00,679,Wunderground v.1.15,2013-09-19 15:10:00,
2013-09-19 11:20:00,64.5,55.3,30.17,NNW,345,1.0,1.0,72,0.00,,,0.00,700,Wunderground v.1.15,2013-09-19 15:20:00,
2013-09-19 11:30:00,65.0,52.9,30.17,West,274,0.0,0.0,65,0.00,,,0.00,712,Wunderground v.1.15,2013-09-19 15:30:00,
2013-09-19 11:40:00,65.8,55.7,30.17,West,271,1.0,1.0,70,0.00,,,0.00,728,Wunderground v.1.15,2013-09-19 15:40:00,
2013-09-19 11:50:00,66.5,53.9,30.17,NNE,25,0.0,0.0,64,0.00,,,0.00,735,Wunderground v.1.15,2013-09-19 15:50:00,
2013-09-19 12:00:00,67.7,53.8,30.16,WNW,300,0.0,1.0,61,0.00,,,0.00,749,Wunderground v.1.15,2013-09-19 16:00:00,
2013-09-19 12:10:00,68.2,56.4,30.16,WSW,240,0.0,0.0,66,0.00,,,0.00,756,Wunderground v.1.15,2013-09-19 16:10:00,
2013-09-19 12:20:00,69.0,55.4,30.16,SSE,153,0.0,1.0,62,0.00,,,0.00,763,Wunderground v.1.15,2013-09-19 16:20:00,
2013-09-19 12:30:00,69.9,57.2,30.15,SE,146,0.0,0.0,64,0.00,,,0.00,768,Wunderground v.1.15,2013-09-19 16:30:00,
2013-09-19 12:40:00,70.7,55.7,30.15,SSE,156,0.0,0.0,59,0.00,,,0.00,770,Wunderground v.1.15,2013-09-19 16:40:00,
2013-09-19 12:50:00,71.5,57.3,30.15,South,169,0.0,0.0,61,0.00,,,0.00,773,Wunderground v.1.15,2013-09-19 16:50:00,
2013-09-19 13:00:00,72.1,57.9,30.14,South,171,0.0,0.0,61,0.00,,,0.00,773,Wunderground v.1.15,2013-09-19 17:00:00,
2013-09-19 13:10:00,72.0,57.4,30.13,SSE,155,1.0,2.0,60,0.00,,,0.00,773,Wunderground v.1.15,2013-09-19 17:10:00,
2013-09-19 13:20:00,72.3,54.2,30.13,SSW,208,1.0,1.0,53,0.00,,,0.00,768,Wunderground v.1.15,2013-09-19 17:20:00,
2013-09-19 13:30:00,73.0,57.8,30.12,West,264,0.0,0.0,59,0.00,,,0.00,759,Wunderground v.1.15,2013-09-19 17:30:00,
2013-09-19 13:40:00,72.9,57.7,30.12,SSE,154,0.0,1.0,59,0.00,,,0.00,682,Wunderground v.1.15,2013-09-19 17:40:00,
2013-09-19 13:50:00,72.5,57.8,30.12,West,272,0.0,0.0,60,0.00,,,0.00,118,Wunderground v.1.15,2013-09-19 17:50:00,
2013-09-19 14:10:00,71.8,54.8,30.11,SSE,158,0.0,0.0,55,0.00,,,0.00,113,Wunderground v.1.15,2013-09-19 18:10:00,
2013-09-19 14:20:00,71.9,56.8,30.10,NW,320,0.0,1.0,59,0.00,,,0.00,100,Wunderground v.1.15,2013-09-19 18:20:00,
2013-09-19 14:30:00,71.9,52.8,30.10,South,186,1.0,2.0,51,0.00,,,0.00,39,Wunderground v.1.15,2013-09-19 18:30:00,
2013-09-19 14:40:00,71.5,51.3,30.09,SSW,194,0.0,0.0,49,0.00,,,0.00,40,Wunderground v.1.15,2013-09-19 18:40:00,
2013-09-19 14:50:00,71.3,52.8,30.09,NNE,13,1.0,1.0,52,0.00,,,0.00,35,Wunderground v.1.15,2013-09-19 18:50:00,
2013-09-19 15:00:00,71.4,53.9,30.09,SSW,193,1.0,1.0,54,0.00,,,0.00,35,Wunderground v.1.15,2013-09-19 19:00:00,
2013-09-19 15:10:00,71.1,56.5,30.09,South,173,0.0,0.0,60,0.00,,,0.00,33,Wunderground v.1.15,2013-09-19 19:10:00,
2013-09-19 15:20:00,70.6,52.6,30.08,South,173,0.0,0.0,53,0.00,,,0.00,33,Wunderground v.1.15,2013-09-19 19:20:00,
2013-09-19 15:30:00,70.2,57.9,30.08,South,171,0.0,1.0,65,0.00,,,0.00,32,Wunderground v.1.15,2013-09-19 19:30:00,
2013-09-19 15:40:00,69.6,56.4,30.08,WNW,297,0.0,0.0,63,0.00,,,0.00,32,Wunderground v.1.15,2013-09-19 19:40:00,
2013-09-19 15:50:00,69.4,56.7,30.08,East,89,0.0,1.0,64,0.00,,,0.00,30,Wunderground v.1.15,2013-09-19 19:50:00,
2013-09-19 16:00:00,69.3,57.0,30.07,NE,56,0.0,2.0,65,0.00,,,0.00,26,Wunderground v.1.15,2013-09-19 20:00:00,
2013-09-19 16:10:00,69.0,58.4,30.07,ESE,123,0.0,0.0,69,0.00,,,0.00,26,Wunderground v.1.15,2013-09-19 20:10:00,
2013-09-19 16:20:00,68.6,57.2,30.07,ESE,119,0.0,0.0,67,0.00,,,0.00,25,Wunderground v.1.15,2013-09-19 20:20:00,
2013-09-19 16:30:00,68.3,57.3,30.07,SE,131,0.0,0.0,68,0.00,,,0.00,25,Wunderground v.1.15,2013-09-19 20:30:00,
2013-09-19 16:40:00,68.0,57.0,30.07,SE,128,0.0,0.0,68,0.00,,,0.00,23,Wunderground v.1.15,2013-09-19 20:40:00,
2013-09-19 16:50:00,67.7,58.0,30.06,SSE,163,0.0,0.0,71,0.00,,,0.00,23,Wunderground v.1.15,2013-09-19 20:50:00,
2013-09-19 17:00:00,67.4,58.1,30.07,South,176,0.0,0.0,72,0.00,,,0.00,23,Wunderground v.1.15,2013-09-19 21:00:00,
2013-09-19 17:10:00,67.2,57.5,30.07,NE,40,0.0,0.0,71,0.00,,,0.00,21,Wunderground v.1.15,2013-09-19 21:10:00,
2013-09-19 17:20:00,66.9,57.2,30.07,NE,39,0.0,0.0,71,0.00,,,0.00,28,Wunderground v.1.15,2013-09-19 21:20:00,
2013-09-19 17:30:00,66.6,57.7,30.07,NE,38,0.0,0.0,73,0.00,,,0.00,18,Wunderground v.1.15,2013-09-19 21:30:00,
2013-09-19 17:40:00,66.3,56.6,30.07,NE,40,0.0,1.0,71,0.00,,,0.00,18,Wunderground v.1.15,2013-09-19 21:40:00,
2013-09-19 17:50:00,65.9,56.6,30.06,SE,127,0.0,0.0,72,0.00,,,0.00,16,Wunderground v.1.15,2013-09-19 21:50:00,
2013-09-19 18:00:00,65.6,56.3,30.06,SE,135,0.0,0.0,72,0.00,,,0.00,14,Wunderground v.1.15,2013-09-19 22:00:00,
2013-09-19 18:10:00,65.2,55.6,30.06,SE,135,0.0,0.0,71,0.00,,,0.00,12,Wunderground v.1.15,2013-09-19 22:10:00,
2013-09-19 18:20:00,65.0,55.8,30.07,SE,136,0.0,0.0,72,0.00,,,0.00,11,Wunderground v.1.15,2013-09-19 22:20:00,
2013-09-19 18:30:00,64.5,55.3,30.06,SE,137,0.0,0.0,72,0.00,,,0.00,9,Wunderground v.1.15,2013-09-19 22:30:00,
2013-09-19 18:40:00,64.0,54.8,30.07,SE,136,0.0,0.0,72,0.00,,,0.00,7,Wunderground v.1.15,2013-09-19 22:40:00,
2013-09-19 18:50:00,63.5,54.3,30.07,SE,138,0.0,0.0,72,0.00,,,0.00,0,Wunderground v.1.15,2013-09-19 22:50:00,
2013-09-19 19:00:00,62.9,54.1,30.07,SE,138,0.0,0.0,73,0.00,,,0.00,0,Wunderground v.1.15,2013-09-19 23:00:00,
2013-09-19 19:10:00,62.4,54.4,30.07,SE,137,0.0,0.0,75,0.00,,,0.00,0,Wunderground v.1.15,2013-09-19 23:10:00,
2013-09-19 19:20:00,61.8,54.2,30.07,SE,135,0.0,0.0,76,0.00,,,0.00,0,Wunderground v.1.15,2013-09-19 23:20:00,
2013-09-19 19:30:00,61.2,53.6,30.07,SE,137,0.0,0.0,76,0.00,,,0.00,0,Wunderground v.1.15,2013-09-19 23:30:00,
2013-09-19 19:40:00,60.7,53.8,30.07,SE,136,0.0,0.0,78,0.00,,,0.00,0,Wunderground v.1.15,2013-09-19 23:40:00,
2013-09-19 19:50:00,60.3,53.8,30.08,SE,137,0.0,0.0,79,0.00,,,0.00,0,Wunderground v.1.15,2013-09-19 23:50:00,
2013-09-19 20:00:00,59.8,53.6,30.08,SE,138,0.0,0.0,80,0.00,,,0.00,0,Wunderground v.1.15,2013-09-20 00:00:00,
2013-09-19 20:10:00,59.4,53.6,30.08,SE,137,0.0,0.0,81,0.00,,,0.00,0,Wunderground v.1.15,2013-09-20 00:10:00,
2013-09-19 20:20:00,59.0,53.2,30.09,SE,137,0.0,0.0,81,0.00,,,0.00,0,Wunderground v.1.15,2013-09-20 00:20:00,
2013-09-19 20:30:00,58.6,53.1,30.09,SE,137,0.0,0.0,82,0.00,,,0.00,0,Wunderground v.1.15,2013-09-20 00:30:00,
2013-09-19 20:40:00,58.2,53.1,30.09,SE,136,0.0,0.0,83,0.00,,,0.00,0,Wunderground v.1.15,2013-09-20 00:40:00,
2013-09-19 20:50:00,57.8,53.0,30.09,SE,135,0.0,0.0,84,0.00,,,0.00,0,Wunderground v.1.15,2013-09-20 00:50:00,
2013-09-19 21:00:00,57.5,53.0,30.08,SE,138,0.0,0.0,85,0.00,,,0.00,0,Wunderground v.1.15,2013-09-20 01:00:00,
2013-09-19 21:10:00,57.2,53.0,30.09,SE,135,0.0,0.0,86,0.00,,,0.00,0,Wunderground v.1.15,2013-09-20 01:10:00,
2013-09-19 21:20:00,57.0,52.9,30.08,SE,138,0.0,0.0,86,0.00,,,0.00,0,Wunderground v.1.15,2013-09-20 01:20:00,
2013-09-19 21:30:00,56.7,52.6,30.08,SE,135,0.0,0.0,86,0.00,,,0.00,0,Wunderground v.1.15,2013-09-20 01:30:00,
2013-09-19 21:40:00,56.4,52.6,30.09,SE,138,0.0,0.0,87,0.00,,,0.00,0,Wunderground v.1.15,2013-09-20 01:40:00,
2013-09-19 21:50:00,56.3,52.5,30.09,SE,138,0.0,0.0,87,0.00,,,0.00,0,Wunderground v.1.15,2013-09-20 01:50:00,
2013-09-19 22:00:00,55.9,52.1,30.09,SE,138,0.0,0.0,87,0.00,,,0.00,0,Wunderground v.1.15,2013-09-20 02:00:00,
2013-09-19 22:10:00,55.6,51.8,30.09,SE,135,0.0,0.0,87,0.00,,,0.00,0,Wunderground v.1.15,2013-09-20 02:10:00,
2013-09-19 22:20:00,55.3,51.8,30.09,SE,138,0.0,0.0,88,0.00,,,0.00,0,Wunderground v.1.15,2013-09-20 02:20:00,
2013-09-19 22:30:00,55.1,51.6,30.08,SE,138,0.0,0.0,88,0.00,,,0.00,0,Wunderground v.1.15,2013-09-20 02:30:00,
2013-09-19 22:40:00,54.8,51.3,30.08,SE,136,0.0,0.0,88,0.00,,,0.00,0,Wunderground v.1.15,2013-09-20 02:40:00,
2013-09-19 22:50:00,54.5,51.0,30.08,SE,138,0.0,0.0,88,0.00,,,0.00,0,Wunderground v.1.15,2013-09-20 02:50:00,
2013-09-19 23:00:00,54.4,51.5,30.08,SE,136,0.0,0.0,90,0.00,,,0.00,0,Wunderground v.1.15,2013-09-20 03:00:00,
2013-09-19 23:10:00,54.2,51.0,30.08,SE,137,0.0,0.0,89,0.00,,,0.00,0,Wunderground v.1.15,2013-09-20 03:10:00,
2013-09-19 23:20:00,54.0,51.1,30.08,SE,137,0.0,0.0,90,0.00,,,0.00,0,Wunderground v.1.15,2013-09-20 03:20:00,
2013-09-19 23:30:00,53.9,51.0,30.08,SE,136,0.0,0.0,90,0.00,,,0.00,0,Wunderground v.1.15,2013-09-20 03:30:00,
2013-09-19 23:40:00,53.7,50.8,30.08,SE,136,0.0,0.0,90,0.00,,,0.00,0,Wunderground v.1.15,2013-09-20 03:40:00,
2013-09-19 23:50:00,53.5,50.6,30.08,SE,136,0.0,0.0,90,0.00,,,0.00,0,Wunderground v.1.15,2013-09-20 03:50:00,